Time;durP1;ratioP1;P1;durP2;ratioP2;P2;SDS_P1;SDS_P2;PMS_P1;PMS_P2;Temp;Humidity;BMP_temperature;BMP_pressure;BME280_temperature;BME280_humidity;BME280_pressure;Samples;Min_cycle;Max_cycle;Signal;HPM_P1;HPM_P2
2022/07/03 00:01:58;;;;;;;20.45;3.58;;;14.40;99.90;;;;;;5053802;28;20382;-86
2022/07/03 00:04:25;;;;;;;19.95;3.70;;;14.40;99.90;;;;;;5053773;28;20466;-85
2022/07/03 00:06:54;;;;;;;18.83;3.53;;;14.50;99.90;;;;;;5053611;28;20438;-85
2022/07/03 00:09:22;;;;;;;17.37;3.00;;;14.50;99.90;;;;;;5053580;28;20379;-84
2022/07/03 00:11:49;;;;;;;18.70;3.25;;;14.50;99.90;;;;;;5053555;28;20439;-87
2022/07/03 00:14:17;;;;;;;16.38;2.97;;;14.60;99.90;;;;;;5053244;28;20378;-87
2022/07/03 00:16:44;;;;;;;16.55;3.30;;;14.60;99.90;;;;;;5053199;28;20406;-87
2022/07/03 00:19:12;;;;;;;19.60;3.63;;;14.80;99.90;;;;;;5053247;28;20372;-83
2022/07/03 00:22:02;;;;;;;20.35;3.55;;;14.80;99.90;;;;;;5053190;28;20836;-84
2022/07/03 00:24:41;;;;;;;20.47;3.63;;;14.80;99.90;;;;;;5053361;28;20585;-87
2022/07/03 00:27:10;;;;;;;16.77;3.85;;;14.90;99.90;;;;;;5053020;28;20459;-88
2022/07/03 00:29:43;;;;;;;20.75;4.13;;;14.90;99.90;;;;;;5053144;28;20372;-87
2022/07/03 00:32:19;;;;;;;20.83;3.70;;;15.00;99.90;;;;;;5053537;28;20388;-84
2022/07/03 00:34:49;;;;;;;18.83;3.17;;;15.10;99.90;;;;;;5053193;28;20371;-84
2022/07/03 00:37:16;;;;;;;16.08;3.00;;;15.30;99.90;;;;;;5053332;28;20399;-86
2022/07/03 00:39:44;;;;;;;17.88;3.15;;;15.20;99.90;;;;;;5053059;28;20863;-85
2022/07/03 00:42:13;;;;;;;16.08;2.80;;;15.20;99.90;;;;;;5053323;28;20383;-85
2022/07/03 00:44:48;;;;;;;13.35;2.78;;;15.30;99.90;;;;;;5052879;28;20387;-86
2022/07/03 00:47:17;;;;;;;14.18;2.58;;;15.40;99.90;;;;;;5053161;28;20759;-85
2022/07/03 00:49:50;;;;;;;13.85;2.70;;;15.50;99.90;;;;;;5052751;28;20391;-86
2022/07/03 00:52:18;;;;;;;12.55;2.65;;;15.50;99.90;;;;;;5053107;28;20824;-83
2022/07/03 00:54:52;;;;;;;14.40;3.00;;;15.50;99.90;;;;;;5057110;28;20447;-82
2022/07/03 00:57:21;;;;;;;17.38;3.33;;;15.60;99.90;;;;;;5052898;28;20743;-86
2022/07/03 00:59:48;;;;;;;18.07;3.77;;;15.70;99.90;;;;;;5053430;28;20527;-90
2022/07/03 01:02:35;;;;;;;19.77;4.13;;;15.70;99.90;;;;;;5052727;28;20412;-85
2022/07/03 01:05:16;;;;;;;20.75;4.00;;;15.60;99.90;;;;;;5053152;28;20767;-87
2022/07/03 01:07:57;;;;;;;21.45;4.00;;;15.60;99.90;;;;;;5052130;28;20453;-84
2022/07/03 01:11:02;;;;;;;17.58;3.42;;;15.60;99.90;;;;;;5052763;28;20375;-85
2022/07/03 01:14:11;;;;;;;17.27;3.50;;;15.50;99.90;;;;;;5051270;28;20384;-91
2022/07/03 01:16:50;;;;;;;15.15;3.40;;;15.50;99.90;;;;;;5030498;28;20951;-85
2022/07/03 01:19:36;;;;;;;15.70;3.55;;;15.60;99.90;;;;;;5031592;28;20408;-88
2022/07/03 01:22:24;;;;;;;18.60;3.95;;;15.70;99.90;;;;;;5031209;28;20391;-91
2022/07/03 01:24:57;;;;;;;18.50;3.65;;;15.80;99.90;;;;;;5031572;28;20397;-87
2022/07/03 01:27:48;;;;;;;19.73;3.75;;;15.90;99.90;;;;;;5031544;28;20404;-85
2022/07/03 01:30:16;;;;;;;19.88;3.70;;;15.90;99.90;;;;;;5032011;28;20377;-90
2022/07/03 01:32:46;;;;;;;17.67;3.75;;;16.00;99.90;;;;;;5030637;28;20447;-87
2022/07/03 01:35:27;;;;;;;18.33;3.22;;;16.00;99.90;;;;;;5030807;28;20385;-90
2022/07/03 01:37:55;;;;;;;19.13;3.63;;;16.10;99.90;;;;;;5031137;28;20393;-85
2022/07/03 01:40:27;;;;;;;17.15;3.78;;;16.20;99.90;;;;;;5032209;28;20473;-92
2022/07/03 01:42:57;;;;;;;16.92;3.42;;;16.20;99.90;;;;;;5031713;28;20382;-90
2022/07/03 01:45:28;;;;;;;18.70;3.55;;;16.20;99.90;;;;;;5030771;28;20382;-93
2022/07/03 01:47:58;;;;;;;15.50;3.00;;;16.30;99.90;;;;;;5030398;28;20389;-84
2022/07/03 01:50:26;;;;;;;15.65;3.22;;;16.30;99.90;;;;;;5032587;28;20917;-92
2022/07/03 01:52:54;;;;;;;17.77;3.55;;;16.40;99.90;;;;;;5041073;28;20454;-85
2022/07/03 01:55:23;;;;;;;14.95;3.05;;;16.30;99.90;;;;;;5052729;28;20368;-92
2022/07/03 01:57:51;;;;;;;15.90;3.43;;;16.30;99.90;;;;;;5052075;28;20875;-85
2022/07/03 02:00:21;;;;;;;15.77;3.55;;;16.30;99.90;;;;;;5052000;28;20368;-86
2022/07/03 02:03:06;;;;;;;13.45;3.08;;;16.20;99.90;;;;;;5052236;28;20402;-90
2022/07/03 02:05:48;;;;;;;15.57;3.22;;;16.20;99.90;;;;;;5051624;28;20368;-89
2022/07/03 02:08:23;;;;;;;14.52;3.10;;;16.10;99.90;;;;;;5051727;28;20856;-83
2022/07/03 02:11:18;;;;;;;18.67;3.20;;;15.90;99.90;;;;;;5051714;28;20736;-87
2022/07/03 02:14:06;;;;;;;16.23;3.37;;;15.80;99.90;;;;;;5049524;28;20455;-84
2022/07/03 02:16:53;;;;;;;15.52;3.47;;;15.70;99.90;;;;;;5052125;28;20474;-87
2022/07/03 02:19:38;;;;;;;19.07;3.27;;;15.60;99.90;;;;;;5052353;28;20367;-85
2022/07/03 02:22:08;;;;;;;17.23;3.50;;;15.60;99.90;;;;;;5055120;28;20364;-89
2022/07/03 02:24:47;;;;;;;20.75;4.03;;;15.60;99.90;;;;;;5055760;28;20384;-91
2022/07/03 02:27:28;;;;;;;22.33;4.45;;;15.60;99.90;;;;;;5056359;28;20713;-94
2022/07/03 02:30:09;;;;;;;22.55;4.15;;;15.60;99.90;;;;;;5056183;28;20390;-86
2022/07/03 02:32:50;;;;;;;20.67;4.23;;;15.70;99.90;;;;;;5055491;28;20402;-87
2022/07/03 02:35:31;;;;;;;20.23;4.20;;;15.70;99.90;;;;;;5055652;28;20848;-86
2022/07/03 02:38:09;;;;;;;25.25;4.50;;;15.80;99.90;;;;;;5056816;28;20474;-93
2022/07/03 02:40:58;;;;;;;27.60;4.78;;;15.90;99.90;;;;;;5056168;28;20389;-92
2022/07/03 02:43:35;;;;;;;20.05;4.10;;;16.00;99.90;;;;;;5054637;28;20388;-89
2022/07/03 02:49:15;;;;;;;24.50;4.57;;;16.10;99.90;;;;;;5056369;28;20465;-87
2022/07/03 02:51:51;;;;;;;23.52;4.57;;;16.10;99.90;;;;;;5055558;28;20364;-86
2022/07/03 02:54:18;;;;;;;21.65;4.40;;;16.20;99.90;;;;;;5055931;28;20372;-82
2022/07/03 02:56:59;;;;;;;22.65;4.53;;;16.30;99.90;;;;;;5055804;28;20399;-89
2022/07/03 02:59:53;;;;;;;17.10;3.83;;;16.40;99.90;;;;;;5055137;28;20382;-93
2022/07/03 03:02:39;;;;;;;21.85;4.28;;;16.50;99.90;;;;;;5055237;28;20850;-89
2022/07/03 03:05:38;;;;;;;17.45;4.45;;;16.50;99.90;;;;;;5060355;28;20383;-89
2022/07/03 03:08:42;;;;;;;17.65;3.92;;;16.50;99.90;;;;;;5049333;28;20380;-95
2022/07/03 03:11:30;;;;;;;17.58;3.85;;;16.40;99.90;;;;;;5035032;28;20938;-85
2022/07/03 03:14:00;;;;;;;23.07;4.17;;;16.40;99.90;;;;;;5033511;28;20417;-85
2022/07/03 03:16:28;;;;;;;17.50;3.80;;;16.30;99.90;;;;;;5033399;28;20524;-91
2022/07/03 03:18:55;;;;;;;20.57;3.90;;;16.20;99.90;;;;;;5033010;28;20481;-90
2022/07/03 03:21:26;;;;;;;19.50;4.13;;;16.10;99.90;;;;;;5033772;28;20881;-93
2022/07/03 03:23:54;;;;;;;19.83;4.00;;;16.00;99.90;;;;;;5034074;28;21046;-92
2022/07/03 03:26:29;;;;;;;17.30;4.18;;;15.80;99.90;;;;;;5040461;28;20476;-92
2022/07/03 03:28:56;;;;;;;21.20;4.45;;;15.70;99.90;;;;;;5046832;28;20382;-87
2022/07/03 03:31:24;;;;;;;20.70;4.25;;;15.50;99.90;;;;;;5040915;28;20885;-82
2022/07/03 03:33:53;;;;;;;24.13;4.45;;;15.50;99.90;;;;;;5032894;28;20390;-85
2022/07/03 03:36:21;;;;;;;21.08;4.18;;;15.40;99.90;;;;;;5032061;28;20390;-85
2022/07/03 03:38:49;;;;;;;22.02;4.20;;;15.30;99.90;;;;;;5032147;28;20385;-84
2022/07/03 03:41:16;;;;;;;21.75;4.70;;;15.20;99.90;;;;;;5032313;28;20373;-85
2022/07/03 03:43:44;;;;;;;19.17;4.40;;;15.10;99.90;;;;;;5031963;28;20397;-85
2022/07/03 03:46:14;;;;;;;20.65;4.30;;;15.00;99.90;;;;;;5039423;28;20375;-86
2022/07/03 03:48:41;;;;;;;19.03;3.93;;;14.90;99.90;;;;;;5052755;28;20740;-87
2022/07/03 03:51:08;;;;;;;22.23;4.50;;;14.80;99.90;;;;;;5054054;28;20376;-84
2022/07/03 03:53:36;;;;;;;22.15;3.70;;;14.80;99.90;;;;;;5053810;28;20368;-86
2022/07/03 03:56:06;;;;;;;21.65;4.10;;;14.80;99.90;;;;;;5053658;28;20822;-86
2022/07/03 03:58:36;;;;;;;19.30;4.05;;;14.80;99.90;;;;;;5052561;28;20880;-85
2022/07/03 04:01:05;;;;;;;21.35;3.95;;;14.80;99.90;;;;;;5054176;28;20832;-85
2022/07/03 04:03:33;;;;;;;22.85;4.25;;;14.70;99.90;;;;;;5053567;28;20376;-85
2022/07/03 04:06:00;;;;;;;19.48;4.05;;;14.80;99.90;;;;;;5053569;28;20371;-86
2022/07/03 04:08:28;;;;;;;20.17;4.03;;;14.70;99.90;;;;;;5053923;28;20380;-86
2022/07/03 04:10:55;;;;;;;21.08;4.10;;;14.80;99.90;;;;;;5053551;28;20375;-85
2022/07/03 04:13:23;;;;;;;21.75;3.95;;;14.80;99.90;;;;;;5053413;28;20380;-85
2022/07/03 04:15:52;;;;;;;19.97;3.50;;;14.80;99.90;;;;;;5053456;28;20383;-86
2022/07/03 04:18:19;;;;;;;21.70;4.10;;;14.80;99.90;;;;;;5053391;28;20371;-85
2022/07/03 04:20:46;;;;;;;22.13;3.97;;;14.80;99.90;;;;;;5053437;28;20380;-82
2022/07/03 04:23:14;;;;;;;20.53;3.93;;;14.90;99.90;;;;;;5053300;28;20379;-82
2022/07/03 04:25:41;;;;;;;24.13;4.32;;;14.90;99.90;;;;;;5053182;28;20398;-84
2022/07/03 04:28:09;;;;;;;22.60;4.38;;;14.80;99.90;;;;;;5053431;28;20379;-83
2022/07/03 04:30:36;;;;;;;21.55;4.00;;;14.80;99.90;;;;;;5053447;28;20817;-88
2022/07/03 04:33:03;;;;;;;25.08;4.30;;;14.70;99.90;;;;;;5052982;28;20400;-87
2022/07/03 04:35:30;;;;;;;21.40;4.22;;;14.60;99.90;;;;;;5053031;28;20376;-81
2022/07/03 04:37:58;;;;;;;27.63;4.85;;;14.60;99.90;;;;;;5052988;28;20438;-83
2022/07/03 04:40:28;;;;;;;26.00;4.45;;;14.60;99.90;;;;;;5052250;28;20388;-83
2022/07/03 04:42:55;;;;;;;23.33;4.10;;;14.60;99.90;;;;;;5051796;28;20372;-86
2022/07/03 04:48:45;;;;;;;27.90;4.65;;;14.50;99.90;;;;;;5052726;28;20874;-80
2022/07/03 04:51:12;;;;;;;30.03;4.90;;;14.40;99.90;;;;;;5052568;28;20372;-79
2022/07/03 04:53:40;;;;;;;27.52;4.70;;;14.40;99.90;;;;;;5052360;28;20445;-83
2022/07/03 04:56:07;;;;;;;32.97;4.83;;;14.40;99.90;;;;;;5052525;28;20797;-80
2022/07/03 04:58:34;;;;;;;29.10;4.80;;;14.40;99.90;;;;;;5052474;28;20429;-80
2022/07/03 05:01:01;;;;;;;34.72;5.22;;;14.40;99.90;;;;;;5052297;28;20411;-82
2022/07/03 05:03:28;;;;;;;29.23;5.00;;;14.30;99.90;;;;;;5052281;28;20390;-84
2022/07/03 05:05:55;;;;;;;31.48;4.90;;;14.30;99.90;;;;;;5052327;28;20459;-85
2022/07/03 05:08:23;;;;;;;27.70;4.70;;;14.30;99.90;;;;;;5052241;28;20766;-83
2022/07/03 05:10:50;;;;;;;27.35;4.50;;;14.30;99.90;;;;;;5052275;28;20380;-83
2022/07/03 05:13:17;;;;;;;28.27;4.47;;;14.30;99.90;;;;;;5052275;28;20410;-80
2022/07/03 05:15:44;;;;;;;23.70;3.97;;;14.20;99.90;;;;;;5052138;28;20376;-80
2022/07/03 05:18:11;;;;;;;31.75;4.72;;;14.20;99.90;;;;;;5052099;28;20400;-81
2022/07/03 05:20:38;;;;;;;29.25;4.38;;;14.10;99.90;;;;;;5052321;28;20372;-79
2022/07/03 05:23:05;;;;;;;27.63;4.33;;;14.10;99.90;;;;;;5052298;28;20385;-81
2022/07/03 05:25:32;;;;;;;26.63;4.57;;;14.10;99.90;;;;;;5052225;28;20372;-80
2022/07/03 05:28:01;;;;;;;27.85;4.32;;;14.10;99.90;;;;;;5052215;28;20425;-81
2022/07/03 05:30:28;;;;;;;26.88;3.85;;;14.10;99.90;;;;;;5052331;28;20368;-82
2022/07/03 05:32:56;;;;;;;26.25;4.22;;;14.00;99.90;;;;;;5052139;28;20388;-90
2022/07/03 05:35:23;;;;;;;21.95;4.00;;;14.10;99.90;;;;;;5052189;28;20379;-85
2022/07/03 05:37:50;;;;;;;31.48;4.40;;;14.00;99.90;;;;;;5052140;28;20411;-86
2022/07/03 05:40:17;;;;;;;25.08;4.00;;;13.90;99.90;;;;;;5052397;28;20372;-90
2022/07/03 05:42:45;;;;;;;27.65;4.35;;;13.90;99.90;;;;;;5052052;28;20387;-86
2022/07/03 05:45:12;;;;;;;24.67;4.10;;;13.90;99.90;;;;;;5052261;28;20743;-86
2022/07/03 05:47:39;;;;;;;23.92;4.03;;;13.90;99.90;;;;;;5052096;28;20375;-86
2022/07/03 05:50:07;;;;;;;25.00;4.10;;;13.90;99.90;;;;;;5051984;28;20375;-87
2022/07/03 05:52:34;;;;;;;26.87;4.10;;;13.90;99.90;;;;;;5052189;28;20382;-91
2022/07/03 05:55:01;;;;;;;26.95;4.20;;;13.90;99.90;;;;;;5054103;28;20430;-89
2022/07/03 05:57:28;;;;;;;27.38;4.32;;;13.90;99.90;;;;;;5056098;28;20407;-86
2022/07/03 05:59:55;;;;;;;27.15;4.10;;;13.80;99.90;;;;;;5056039;28;20955;-87
2022/07/03 06:02:22;;;;;;;27.38;4.00;;;13.80;99.90;;;;;;5056212;28;20390;-88
2022/07/03 06:04:50;;;;;;;20.60;3.50;;;13.80;99.90;;;;;;5056160;28;20422;-89
2022/07/03 06:07:17;;;;;;;24.42;3.80;;;13.70;99.90;;;;;;5056372;28;20783;-88
2022/07/03 06:09:44;;;;;;;25.52;4.20;;;13.70;99.90;;;;;;5056017;28;20430;-87
2022/07/03 06:12:11;;;;;;;27.45;4.22;;;13.60;99.90;;;;;;5065618;28;20391;-86
2022/07/03 06:14:39;;;;;;;24.05;3.83;;;13.60;99.90;;;;;;5055811;28;20416;-87
2022/07/03 06:17:07;;;;;;;26.50;3.97;;;13.60;99.90;;;;;;5058473;28;20406;-87
2022/07/03 06:19:34;;;;;;;23.90;3.73;;;13.50;99.90;;;;;;5054613;28;20376;-91
2022/07/03 06:22:01;;;;;;;24.77;4.07;;;13.50;99.90;;;;;;5057020;28;20844;-88
2022/07/03 06:24:28;;;;;;;25.40;3.95;;;13.50;99.90;;;;;;5054493;28;20388;-87
2022/07/03 06:26:55;;;;;;;28.73;3.97;;;13.40;99.90;;;;;;5054218;28;20367;-88
2022/07/03 06:29:22;;;;;;;25.08;3.83;;;13.40;99.90;;;;;;5055483;28;20376;-89
2022/07/03 06:31:50;;;;;;;27.35;3.85;;;13.50;99.90;;;;;;5054165;28;20879;-88
2022/07/03 06:34:17;;;;;;;25.27;4.20;;;13.40;99.90;;;;;;5055764;28;20466;-93
2022/07/03 06:36:44;;;;;;;23.80;4.22;;;13.50;99.90;;;;;;5055630;28;20400;-91
2022/07/03 06:39:11;;;;;;;26.58;4.40;;;13.40;99.90;;;;;;5055365;28;20450;-87
2022/07/03 06:41:38;;;;;;;26.23;4.20;;;13.40;99.90;;;;;;5055848;28;20466;-87
2022/07/03 06:44:05;;;;;;;21.17;3.63;;;13.40;99.90;;;;;;5060021;28;20375;-87
2022/07/03 06:46:32;;;;;;;20.35;3.80;;;13.30;99.90;;;;;;5060460;28;20419;-88
2022/07/03 06:48:59;;;;;;;17.25;3.20;;;13.30;99.90;;;;;;5060029;28;20401;-91
2022/07/03 06:51:26;;;;;;;20.92;3.38;;;13.30;99.90;;;;;;5061686;28;20882;-88
2022/07/03 06:53:53;;;;;;;19.77;3.10;;;13.30;99.90;;;;;;5057669;28;20414;-92
2022/07/03 06:56:21;;;;;;;18.80;3.10;;;13.20;99.90;;;;;;5054154;28;20391;-85
2022/07/03 06:58:48;;;;;;;17.73;2.78;;;13.20;99.90;;;;;;5055505;28;20376;-88
2022/07/03 07:01:15;;;;;;;18.90;3.22;;;13.20;99.90;;;;;;5055399;28;20371;-88
2022/07/03 07:03:42;;;;;;;20.87;3.37;;;13.20;99.90;;;;;;5055354;28;20502;-87
2022/07/03 07:06:09;;;;;;;17.90;3.00;;;13.20;99.90;;;;;;5052859;28;20389;-87
2022/07/03 07:08:36;;;;;;;19.40;2.90;;;13.20;99.90;;;;;;5053740;28;20380;-89
2022/07/03 07:11:03;;;;;;;23.48;3.25;;;13.20;99.90;;;;;;5055525;28;20783;-87
2022/07/03 07:13:31;;;;;;;18.67;3.40;;;13.10;99.90;;;;;;5054948;28;20936;-90
2022/07/03 07:15:58;;;;;;;20.17;3.28;;;13.20;99.90;;;;;;5054869;28;20411;-89
2022/07/03 07:18:25;;;;;;;20.73;3.50;;;13.20;99.90;;;;;;5054744;28;20387;-87
2022/07/03 07:20:52;;;;;;;21.05;3.63;;;13.20;99.90;;;;;;5054861;28;20824;-87
2022/07/03 07:23:19;;;;;;;21.50;3.47;;;13.10;99.90;;;;;;5054684;28;20392;-85
2022/07/03 07:25:46;;;;;;;20.92;3.42;;;13.10;99.90;;;;;;5053199;28;20871;-87
2022/07/03 07:28:14;;;;;;;21.80;3.70;;;13.10;99.90;;;;;;5054519;28;20388;-91
2022/07/03 07:30:41;;;;;;;19.10;3.30;;;13.10;99.90;;;;;;5053247;28;20405;-85
2022/07/03 07:33:09;;;;;;;20.15;3.28;;;13.10;99.90;;;;;;5053967;28;20396;-89
2022/07/03 07:35:36;;;;;;;20.10;3.45;;;13.10;99.90;;;;;;5052979;28;20380;-90
2022/07/03 07:38:03;;;;;;;17.42;3.25;;;13.00;99.90;;;;;;5055373;28;20474;-89
2022/07/03 07:40:30;;;;;;;19.20;4.00;;;13.10;99.90;;;;;;5055991;28;20382;-85
2022/07/03 07:42:57;;;;;;;20.08;3.83;;;13.10;99.90;;;;;;5054538;28;20384;-89
2022/07/03 07:45:24;;;;;;;22.00;3.53;;;13.10;99.90;;;;;;5053188;28;20380;-89
2022/07/03 07:47:51;;;;;;;18.73;3.35;;;13.10;99.90;;;;;;5052928;28;20942;-87
2022/07/03 07:50:18;;;;;;;19.95;3.35;;;13.10;99.90;;;;;;5054308;28;20855;-88
2022/07/03 07:52:46;;;;;;;18.65;3.45;;;13.20;99.90;;;;;;5054046;28;20376;-87
2022/07/03 07:55:13;;;;;;;18.45;3.30;;;13.20;99.90;;;;;;5054206;28;20372;-88
2022/07/03 07:57:41;;;;;;;18.95;3.13;;;13.20;99.90;;;;;;5053891;28;20504;-87
2022/07/03 08:00:10;;;;;;;21.00;3.28;;;13.20;99.90;;;;;;5054019;28;20379;-89
2022/07/03 08:05:38;;;;;;;19.77;3.42;;;13.20;99.90;;;;;;5054026;28;20356;-90
2022/07/03 08:08:13;;;;;;;19.00;3.30;;;13.30;99.90;;;;;;5053674;28;20399;-88
2022/07/03 08:10:50;;;;;;;18.27;3.40;;;13.20;99.90;;;;;;5054259;28;20877;-88
2022/07/03 08:13:19;;;;;;;23.85;3.85;;;13.20;99.90;;;;;;5053569;28;20407;-87
2022/07/03 08:15:49;;;;;;;24.35;4.05;;;13.30;99.90;;;;;;5052182;28;20430;-89
2022/07/03 08:18:16;;;;;;;22.45;3.55;;;13.30;99.90;;;;;;5052177;28;20422;-88
2022/07/03 08:20:44;;;;;;;27.48;3.97;;;13.30;99.90;;;;;;5053708;28;20437;-87
2022/07/03 08:23:11;;;;;;;24.25;4.20;;;13.30;99.90;;;;;;5052027;28;20392;-88
2022/07/03 08:25:38;;;;;;;25.63;5.50;;;13.30;99.90;;;;;;5053429;28;20368;-86
2022/07/03 08:28:05;;;;;;;23.65;4.55;;;13.30;99.90;;;;;;5053241;28;20447;-87
2022/07/03 08:30:32;;;;;;;22.70;3.72;;;13.30;99.90;;;;;;5051947;28;20802;-87
2022/07/03 08:32:59;;;;;;;22.45;3.50;;;13.30;99.90;;;;;;5054885;28;20429;-87
2022/07/03 08:35:28;;;;;;;25.98;3.70;;;13.30;99.90;;;;;;5053717;28;20375;-88
2022/07/03 08:37:55;;;;;;;22.30;3.25;;;13.30;99.90;;;;;;5053090;28;20400;-88
2022/07/03 08:40:22;;;;;;;20.30;3.20;;;13.30;99.90;;;;;;5053375;28;20407;-88
2022/07/03 08:42:55;;;;;;;21.77;3.40;;;13.30;99.90;;;;;;5054274;28;20391;-88
2022/07/03 08:45:24;;;;;;;25.73;3.80;;;13.30;99.90;;;;;;5058239;28;20376;-87
2022/07/03 08:47:53;;;;;;;29.10;3.90;;;13.30;99.90;;;;;;5054456;28;20740;-88
2022/07/03 08:50:21;;;;;;;26.88;4.25;;;13.30;99.90;;;;;;5052791;28;20713;-87
2022/07/03 08:52:49;;;;;;;25.30;4.05;;;13.30;99.90;;;;;;5051457;28;20434;-87
2022/07/03 08:55:17;;;;;;;29.02;3.97;;;13.30;99.90;;;;;;5052838;28;20383;-88
2022/07/03 08:57:46;;;;;;;32.38;4.30;;;13.30;99.90;;;;;;5051534;28;20957;-86
2022/07/03 09:00:18;;;;;;;31.38;4.40;;;13.30;99.90;;;;;;5052691;28;20388;-89
2022/07/03 09:02:48;;;;;;;28.02;4.47;;;13.30;99.90;;;;;;5054240;28;20831;-87
2022/07/03 09:05:16;;;;;;;32.55;5.00;;;13.30;99.90;;;;;;5060264;28;20375;-87
2022/07/03 09:07:45;;;;;;;30.27;4.50;;;13.30;99.90;;;;;;5051169;28;20937;-86
2022/07/03 09:10:15;;;;;;;32.63;5.00;;;13.40;99.90;;;;;;5052564;28;20403;-87
2022/07/03 09:12:48;;;;;;;25.95;4.43;;;13.30;99.90;;;;;;5052374;28;20411;-87
2022/07/03 09:15:28;;;;;;;;;;;;;;;;;;;;;
2022/07/03 09:18:06;;;;;;;32.55;4.55;;;13.30;99.90;;;;;;5052539;28;20465;-87
2022/07/03 09:20:39;;;;;;;27.23;4.50;;;13.30;99.90;;;;;;5052102;28;20777;-86
2022/07/03 09:23:17;;;;;;;30.15;4.80;;;13.30;99.90;;;;;;5051378;28;20744;-88
2022/07/03 09:25:51;;;;;;;33.13;4.77;;;13.30;99.90;;;;;;5051593;28;20392;-86
2022/07/03 09:28:21;;;;;;;33.20;4.50;;;13.30;99.90;;;;;;5052207;28;20383;-87
2022/07/03 09:31:01;;;;;;;42.33;5.00;;;13.30;99.90;;;;;;5051787;28;20743;-87
2022/07/03 09:33:29;;;;;;;31.73;4.50;;;13.30;99.90;;;;;;5052137;28;20883;-87
2022/07/03 09:35:56;;;;;;;31.38;4.78;;;13.30;99.90;;;;;;5050769;28;20379;-86
2022/07/03 09:38:24;;;;;;;18.42;3.15;;;13.40;99.90;;;;;;5052205;28;20384;-90
2022/07/03 09:40:57;;;;;;;19.20;3.20;;;13.40;99.90;;;;;;5052102;28;20376;-88
2022/07/03 09:43:31;;;;;;;19.70;3.93;;;13.30;99.90;;;;;;5052121;28;20463;-88
2022/07/03 09:46:00;;;;;;;24.43;4.30;;;13.30;99.90;;;;;;5050925;28;20379;-87
2022/07/03 09:48:41;;;;;;;22.90;4.15;;;13.30;99.90;;;;;;5052054;28;20471;-86
2022/07/03 09:51:26;;;;;;;23.23;4.03;;;13.40;99.90;;;;;;5052044;28;20368;-88
2022/07/03 09:54:01;;;;;;;22.13;4.60;;;13.30;99.90;;;;;;5051941;28;20442;-87
2022/07/03 09:56:36;;;;;;;19.73;3.70;;;13.40;99.90;;;;;;5051923;28;20437;-87
2022/07/03 09:59:07;;;;;;;16.85;3.17;;;13.40;99.90;;;;;;5052544;28;20372;-87
2022/07/03 10:01:40;;;;;;;20.13;4.38;;;13.40;99.90;;;;;;5052388;28;20425;-87
2022/07/03 10:04:15;;;;;;;19.20;3.25;;;13.40;99.90;;;;;;5052124;28;20382;-87
2022/07/03 10:06:55;;;;;;;17.33;2.97;;;13.40;99.90;;;;;;5050654;28;20387;-87
2022/07/03 10:09:31;;;;;;;14.35;2.67;;;13.40;99.90;;;;;;5053226;28;20751;-88
2022/07/03 10:12:00;;;;;;;16.63;3.22;;;13.50;99.90;;;;;;5050647;28;20398;-87
2022/07/03 10:14:30;;;;;;;15.80;2.55;;;13.40;99.90;;;;;;5051858;28;20383;-88
2022/07/03 10:16:59;;;;;;;13.25;2.50;;;13.40;99.90;;;;;;5051884;28;20403;-88
2022/07/03 10:19:30;;;;;;;15.68;2.38;;;13.40;99.90;;;;;;5050511;28;20855;-88
2022/07/03 10:22:01;;;;;;;15.85;2.35;;;13.40;99.90;;;;;;5051804;28;20430;-89
2022/07/03 10:24:30;;;;;;;14.35;1.95;;;13.40;99.90;;;;;;5052137;28;20375;-88
2022/07/03 10:26:58;;;;;;;11.70;2.50;;;13.40;99.90;;;;;;5052593;28;20693;-89
2022/07/03 10:29:28;;;;;;;9.38;1.70;;;13.40;99.90;;;;;;5051722;28;20368;-87
2022/07/03 10:31:56;;;;;;;11.73;2.00;;;13.30;99.90;;;;;;5051656;28;20372;-87
2022/07/03 10:34:27;;;;;;;13.57;1.80;;;13.30;99.90;;;;;;5051858;28;20786;-87
2022/07/03 10:37:02;;;;;;;10.48;1.83;;;13.30;99.90;;;;;;5051765;28;20436;-88
2022/07/03 10:39:38;;;;;;;12.95;2.63;;;13.30;99.90;;;;;;5051808;28;20387;-86
2022/07/03 10:45:13;;;;;;;11.32;2.35;;;13.40;99.90;;;;;;5055409;28;20900;-91
2022/07/03 10:47:46;;;;;;;10.20;2.58;;;13.50;99.90;;;;;;5055236;28;20375;-87
2022/07/03 10:50:27;;;;;;;9.85;2.30;;;13.50;99.90;;;;;;5055367;28;20411;-85
2022/07/03 10:53:13;;;;;;;7.55;1.90;;;13.50;99.90;;;;;;5055538;28;20375;-86
2022/07/03 10:56:04;;;;;;;14.30;2.08;;;13.40;99.90;;;;;;5055450;28;20380;-85
2022/07/03 10:58:31;;;;;;;14.52;2.20;;;13.40;99.90;;;;;;5054948;28;20427;-87
2022/07/03 11:01:01;;;;;;;17.67;2.53;;;13.40;99.90;;;;;;5054931;28;20375;-84
2022/07/03 11:04:01;;;;;;;15.93;2.13;;;13.50;99.90;;;;;;5054953;28;20380;-89
2022/07/03 11:06:48;;;;;;;16.15;2.45;;;13.40;99.90;;;;;;5053642;28;20388;-85
2022/07/03 11:09:16;;;;;;;16.27;2.67;;;13.50;99.90;;;;;;5054988;28;20908;-86
2022/07/03 11:11:54;;;;;;;21.80;3.20;;;13.40;99.90;;;;;;5054772;28;20364;-84
2022/07/03 11:14:29;;;;;;;19.23;2.90;;;13.50;99.90;;;;;;5049277;28;20382;-85
2022/07/03 11:17:19;;;;;;;20.67;3.08;;;13.50;99.90;;;;;;5055371;28;20748;-89
2022/07/03 11:23:03;;;;;;;27.10;3.60;;;13.50;99.90;;;;;;5055094;28;20879;-86
2022/07/03 11:25:44;;;;;;;25.70;3.60;;;13.50;99.90;;;;;;5055192;28;20383;-85
2022/07/03 11:28:33;;;;;;;23.83;3.50;;;13.50;99.90;;;;;;5055129;28;20414;-84
2022/07/03 11:33:54;;;;;;;22.42;3.40;;;13.50;99.90;;;;;;5054364;28;20761;-85
2022/07/03 11:36:32;;;;;;;26.10;3.63;;;13.50;99.90;;;;;;5054581;28;20384;-86
2022/07/03 11:38:59;;;;;;;19.23;3.30;;;13.50;99.90;;;;;;5054315;28;20926;-84
2022/07/03 11:41:30;;;;;;;23.30;3.10;;;13.50;99.90;;;;;;5054567;28;20452;-85
2022/07/03 11:44:03;;;;;;;17.88;3.03;;;13.50;99.90;;;;;;5053018;28;20480;-86
2022/07/03 11:46:33;;;;;;;19.52;3.35;;;13.50;99.90;;;;;;5054614;28;20454;-86
2022/07/03 11:49:13;;;;;;;19.65;3.28;;;13.50;99.90;;;;;;5037455;28;20522;-86
2022/07/03 11:51:59;;;;;;;19.55;3.17;;;13.50;99.90;;;;;;5054521;28;20367;-87
2022/07/03 11:54:29;;;;;;;18.75;3.03;;;13.50;99.90;;;;;;5054016;28;20422;-86
2022/07/03 11:56:57;;;;;;;18.27;3.30;;;13.40;99.90;;;;;;5053254;28;20404;-85
2022/07/03 11:59:24;;;;;;;21.27;3.35;;;13.40;99.90;;;;;;5053964;28;20430;-85
2022/07/03 12:01:51;;;;;;;17.75;2.90;;;13.40;99.90;;;;;;5053776;28;20420;-86
2022/07/03 12:07:40;;;;;;;22.03;3.50;;;13.50;99.90;;;;;;5054158;28;21009;-87
2022/07/03 12:10:08;;;;;;;25.30;3.70;;;13.50;99.90;;;;;;5053882;28;20403;-88
2022/07/03 12:12:38;;;;;;;24.80;3.88;;;13.50;99.90;;;;;;5053595;28;20376;-86
2022/07/03 12:15:05;;;;;;;24.00;3.70;;;13.50;99.90;;;;;;5053942;28;20890;-87
2022/07/03 12:17:33;;;;;;;26.58;3.60;;;13.50;99.90;;;;;;5053657;28;20407;-84
2022/07/03 12:20:07;;;;;;;22.77;3.78;;;13.50;99.90;;;;;;5053424;28;20459;-85
2022/07/03 12:22:38;;;;;;;25.02;3.75;;;13.50;99.90;;;;;;5053389;28;20724;-90
2022/07/03 12:25:08;;;;;;;27.70;4.00;;;13.50;99.90;;;;;;5052155;28;20827;-85
2022/07/03 12:27:40;;;;;;;21.42;3.63;;;13.50;99.90;;;;;;5053425;28;20390;-86
2022/07/03 12:30:10;;;;;;;25.25;3.90;;;13.50;99.90;;;;;;5053447;28;20372;-86
2022/07/03 12:32:38;;;;;;;19.02;3.60;;;13.50;99.90;;;;;;5052969;28;20404;-86
2022/07/03 12:35:06;;;;;;;21.60;3.70;;;13.50;99.90;;;;;;5053049;28;20399;-89
2022/07/03 12:37:40;;;;;;;23.50;3.60;;;13.60;99.90;;;;;;5051742;28;20430;-86
2022/07/03 12:40:09;;;;;;;17.83;3.08;;;13.60;99.90;;;;;;5053069;28;20735;-91
2022/07/03 12:42:54;;;;;;;20.08;3.15;;;13.60;99.90;;;;;;5053537;28;20407;-88
2022/07/03 12:45:27;;;;;;;18.10;3.03;;;13.60;99.90;;;;;;5054156;28;20383;-87
2022/07/03 12:48:05;;;;;;;20.17;3.22;;;13.60;99.90;;;;;;5052771;28;20376;-86
2022/07/03 12:50:52;;;;;;;17.95;3.08;;;13.60;99.90;;;;;;5052827;28;20937;-87
2022/07/03 12:53:34;;;;;;;18.40;3.17;;;13.60;99.90;;;;;;5051656;28;20400;-88
2022/07/03 12:56:06;;;;;;;17.35;3.30;;;13.50;99.90;;;;;;5053088;28;20411;-88
2022/07/03 13:01:36;;;;;;;17.25;3.33;;;13.50;99.90;;;;;;5053063;28;20413;-86
2022/07/03 13:04:04;;;;;;;18.50;3.17;;;13.50;99.90;;;;;;5050706;28;20399;-87
2022/07/03 13:06:31;;;;;;;14.95;2.75;;;13.60;99.90;;;;;;5052681;28;20406;-87
2022/07/03 13:09:02;;;;;;;21.23;3.15;;;13.60;99.90;;;;;;5052531;28;20752;-87
2022/07/03 13:11:29;;;;;;;19.33;3.40;;;13.60;99.90;;;;;;5053142;28;20368;-87
2022/07/03 13:14:05;;;;;;;18.67;3.30;;;13.60;99.90;;;;;;5051266;28;20394;-87
2022/07/03 13:16:37;;;;;;;26.00;3.67;;;13.60;99.90;;;;;;5051437;28;20752;-86
2022/07/03 13:19:07;;;;;;;22.45;3.30;;;13.60;99.90;;;;;;5052750;28;20408;-86
2022/07/03 13:21:35;;;;;;;24.17;3.60;;;13.70;99.90;;;;;;5052501;28;20379;-87
2022/07/03 13:24:02;;;;;;;25.52;4.10;;;13.70;99.90;;;;;;5052309;28;20459;-87
2022/07/03 13:26:29;;;;;;;24.25;3.95;;;13.70;99.90;;;;;;5052384;28;20371;-87